Syracuse, NY

12:17 PM EST on February 27, 2015 (GMT -0500)
MoST* - Armory Square | Change Station
CLOSE
Current Station
Personal Weather Station
Location: Syracuse, NY
Elevation: 400 ft
Nearby Weather Stations

Elev 400 ft 43.05 °N, 76.16 °W | Updated 2 minutes ago

Mostly Cloudy
Mostly Cloudy
14.9 °F
Feels Like 4 °F
N
8.0
Wind Variable Wind from NW
Gusts 14.0 mph

Today
High -- | Low -- °F
--% Chance of Precip.
Yesterday
High -- | Low -- °F
Precip. -- in
6:44 AM 5:51 PM
Waxing Gibbous, 70% visible
Pressure 30.47 in
Visibility 10.0 miles
Clouds Mostly Cloudy 3300 ft
Windchill 4 °F
Dew Point 2 °F
Humidity 57%
Rainfall 0.00 in
Snow Depth Not available.
UV 2.0 out of 12
Pollen .40 out of 12
Air Quality Not available.
Flu Activity Not available.
METAR KSYR 271654Z 29012KT 10SM BKN033 M09/M15 A3045 RMK SLP317 T10911153

More Conditions Fewer Conditions

Pressure 30.47 in
Visibility 10.0 miles
Clouds Mostly Cloudy 3300 ft
Windchill 4 °F
Dew Point 2 °F
Humidity 57%
Rainfall 0.00 in
Snow Depth Not available.
UV 2.0 out of 12
Pollen .40 out of 12
Air Quality Not available.
Flu Activity Not available.
METAR KSYR 271654Z 29012KT 10SM BKN033 M09/M15 A3045 RMK SLP317 T10911153

More Conditions Fewer Conditions

10-Day Weather Forecast

Almanac

Astronomy

Feb. 27, 2015 Rise Set
Actual Time
Civil Twilight
Nautical Twilight
Astronomical Twilight
Moon
Length of Visible Light
Length of Day
Tomorrow will be .
, % of the Moon is Illuminated

Today's Extremes

State Highs State Lows

Community

WunderPhotos

Upload Photos

1,800,746 photos uploaded!

WunderBlogs® & News

Nearby

Air Quality

  Air Quality AQ Index Pollutant
Not available.

Snow Depth

Station Depth Elevation

Earthquake Activity

City Distance Mag. Time & Date
Minimum magnitude displayed is 2.5.

Coastal Water Temperatures

Place Temperature

Nearby Weather Stations